Time;durP1;ratioP1;P1;durP2;ratioP2;P2;SDS_P1;SDS_P2;PMS_P1;PMS_P2;Temp;Humidity;BMP_temperature;BMP_pressure;BME280_temperature;BME280_humidity;BME280_pressure;Samples;Min_cycle;Max_cycle;Signal;HPM_P1;HPM_P2
2022/08/14 00:00:38;;;;;;;11.10;6.58;;;;;;;;;;1756940;80;21508;-65
2022/08/14 00:03:04;;;;;;;10.28;6.83;;;;;;;;;;1755510;80;21045;-65
2022/08/14 00:05:31;;;;;;;10.35;7.25;;;;;;;;;;1754094;80;21043;-65
2022/08/14 00:07:57;;;;;;;10.08;6.47;;;;;;;;;;1751474;81;21070;-66
2022/08/14 00:10:23;;;;;;;11.05;6.83;;;;;;;;;;1751783;81;21077;-64
2022/08/14 00:12:53;;;;;;;9.40;6.62;;;;;;;;;;1755762;81;21061;-63
2022/08/14 00:15:21;;;;;;;10.35;7.10;;;;;;;;;;1753738;81;21061;-64
2022/08/14 00:17:48;;;;;;;9.23;6.17;;;;;;;;;;1753252;80;21053;-65
2022/08/14 00:20:14;;;;;;;9.15;6.70;;;;;;;;;;1752492;80;21508;-64
2022/08/14 00:22:40;;;;;;;8.03;6.65;;;;;;;;;;1751844;81;21521;-64
2022/08/14 00:25:07;;;;;;;7.80;5.97;;;;;;;;;;1752908;80;22165;-64
2022/08/14 00:27:34;;;;;;;10.43;7.05;;;;;;;;;;1753098;81;21109;-65
2022/08/14 00:30:00;;;;;;;12.37;7.62;;;;;;;;;;1751405;81;21470;-64
2022/08/14 00:32:26;;;;;;;9.08;6.35;;;;;;;;;;1753314;81;21105;-66
2022/08/14 00:34:52;;;;;;;10.48;6.78;;;;;;;;;;1755275;80;21060;-64
2022/08/14 00:37:18;;;;;;;11.30;6.53;;;;;;;;;;1754198;80;21054;-64
2022/08/14 00:39:44;;;;;;;10.30;6.97;;;;;;;;;;1755100;80;21072;-64
2022/08/14 00:42:10;;;;;;;8.70;6.58;;;;;;;;;;1755898;80;21142;-65
2022/08/14 00:44:36;;;;;;;9.23;7.12;;;;;;;;;;1752434;81;21164;-65
2022/08/14 00:47:04;;;;;;;7.45;6.40;;;;;;;;;;1753978;80;22222;-65
2022/08/14 00:49:31;;;;;;;8.95;5.95;;;;;;;;;;1755537;81;21057;-65
2022/08/14 00:51:59;;;;;;;9.30;6.28;;;;;;;;;;1749339;80;21091;-64
2022/08/14 00:54:25;;;;;;;8.25;6.03;;;;;;;;;;1753815;80;21331;-64
2022/08/14 00:56:51;;;;;;;12.07;7.00;;;;;;;;;;1752516;80;21056;-66
2022/08/14 00:59:17;;;;;;;8.68;6.08;;;;;;;;;;1755027;80;21142;-64
2022/08/14 01:04:32;;;;;;;9.63;6.37;;;;;;;;;;1689030;81;75403;-72
2022/08/14 01:10:14;;;;;;;10.40;5.55;;;;;;;;;;1724838;83;21632;-71
2022/08/14 01:12:40;;;;;;;8.45;5.95;;;;;;;;;;1725353;83;21062;-71
2022/08/14 01:15:08;;;;;;;8.73;6.17;;;;;;;;;;1725045;83;21082;-71
2022/08/14 01:23:07;;;;;;;7.12;5.80;;;;;;;;;;1725045;83;21104;-72
2022/08/14 01:25:36;;;;;;;10.05;6.65;;;;;;;;;;1725285;83;21129;-71
2022/08/14 01:28:02;;;;;;;8.55;7.12;;;;;;;;;;1725280;83;21962;-72
2022/08/14 01:30:31;;;;;;;7.30;5.78;;;;;;;;;;1725197;83;21038;-71
2022/08/14 01:32:57;;;;;;;9.15;6.17;;;;;;;;;;1725291;83;21030;-71
2022/08/14 01:35:27;;;;;;;8.15;6.10;;;;;;;;;;1724749;83;21102;-71
2022/08/14 01:37:51;;;;;;;9.68;6.17;;;;;;;;;;1724848;83;21062;-71
2022/08/14 01:40:17;;;;;;;10.00;6.50;;;;;;;;;;1696560;83;21048;-72
2022/08/14 01:42:43;;;;;;;8.05;6.40;;;;;;;;;;1696546;83;21053;-71
2022/08/14 01:45:13;;;;;;;9.03;6.78;;;;;;;;;;1725322;83;21034;-71
2022/08/14 01:47:39;;;;;;;11.15;6.10;;;;;;;;;;1725232;83;21069;-71
2022/08/14 01:50:06;;;;;;;11.03;6.92;;;;;;;;;;1725106;83;22004;-71
2022/08/14 01:52:34;;;;;;;9.13;7.03;;;;;;;;;;1725384;83;21604;-71
2022/08/14 01:55:02;;;;;;;9.40;6.58;;;;;;;;;;1725244;83;21919;-71
2022/08/14 01:57:28;;;;;;;11.40;6.78;;;;;;;;;;1725721;83;21062;-72
2022/08/14 01:59:55;;;;;;;8.30;5.72;;;;;;;;;;1725269;83;21235;-72
2022/08/14 02:02:22;;;;;;;11.38;5.92;;;;;;;;;;1725393;83;21002;-72
2022/08/14 02:04:48;;;;;;;7.53;6.03;;;;;;;;;;1722528;81;21143;-72
2022/08/14 02:07:14;;;;;;;12.28;6.60;;;;;;;;;;1720278;81;21048;-72
2022/08/14 02:09:41;;;;;;;11.68;7.05;;;;;;;;;;1736907;81;21056;-71
2022/08/14 02:12:08;;;;;;;9.85;6.10;;;;;;;;;;1732001;81;21024;-72
2022/08/14 02:14:34;;;;;;;9.20;5.92;;;;;;;;;;1730258;81;21070;-72
2022/08/14 02:17:00;;;;;;;7.53;6.55;;;;;;;;;;1734731;81;21054;-72
2022/08/14 02:19:27;;;;;;;7.42;5.80;;;;;;;;;;1738554;81;21027;-71
2022/08/14 02:21:54;;;;;;;8.30;6.78;;;;;;;;;;1747505;80;21010;-71
2022/08/14 02:24:22;;;;;;;6.90;5.97;;;;;;;;;;1769084;80;21087;-71
2022/08/14 02:26:49;;;;;;;8.85;6.15;;;;;;;;;;1758148;80;21075;-71
2022/08/14 02:29:17;;;;;;;9.73;6.25;;;;;;;;;;1736874;81;21242;-71
2022/08/14 02:31:44;;;;;;;9.80;6.62;;;;;;;;;;1713171;82;21090;-71
2022/08/14 02:34:17;;;;;;;10.10;5.70;;;;;;;;;;1758709;80;21594;-71
2022/08/14 02:36:43;;;;;;;12.43;6.03;;;;;;;;;;1733925;81;21076;-72
2022/08/14 02:39:09;;;;;;;8.28;6.60;;;;;;;;;;1762204;80;21062;-71
2022/08/14 02:41:35;;;;;;;7.97;6.28;;;;;;;;;;1722609;81;21072;-71
2022/08/14 02:44:03;;;;;;;9.23;6.67;;;;;;;;;;1753793;80;21885;-72
2022/08/14 02:46:32;;;;;;;8.88;7.08;;;;;;;;;;1717401;81;21081;-71
2022/08/14 02:48:58;;;;;;;9.83;5.85;;;;;;;;;;1753588;80;21064;-70
2022/08/14 02:51:25;;;;;;;12.58;6.47;;;;;;;;;;1722638;81;21082;-72
2022/08/14 02:53:53;;;;;;;7.92;6.25;;;;;;;;;;1720505;82;21117;-71
2022/08/14 02:56:19;;;;;;;8.28;5.87;;;;;;;;;;1743016;81;21522;-71
2022/08/14 02:58:46;;;;;;;9.13;7.17;;;;;;;;;;1712161;82;21099;-71
2022/08/14 03:01:14;;;;;;;9.95;6.00;;;;;;;;;;1725881;81;21057;-71
2022/08/14 03:03:40;;;;;;;10.20;6.42;;;;;;;;;;1761465;79;21126;-71
2022/08/14 03:06:07;;;;;;;8.35;6.80;;;;;;;;;;1727023;81;21113;-72
2022/08/14 03:08:35;;;;;;;9.53;7.08;;;;;;;;;;1755961;80;21521;-71
2022/08/14 03:11:05;;;;;;;9.48;7.12;;;;;;;;;;1711040;82;21072;-71
2022/08/14 03:13:31;;;;;;;10.60;6.03;;;;;;;;;;1732177;82;21030;-71
2022/08/14 03:15:57;;;;;;;9.75;5.85;;;;;;;;;;1749275;80;21094;-71
2022/08/14 03:18:25;;;;;;;9.15;5.72;;;;;;;;;;1731085;81;21088;-72
2022/08/14 03:20:51;;;;;;;8.08;6.12;;;;;;;;;;1727504;81;21044;-72
2022/08/14 03:23:17;;;;;;;8.73;6.28;;;;;;;;;;1732811;81;21519;-71
2022/08/14 03:25:44;;;;;;;8.63;5.92;;;;;;;;;;1731007;81;21044;-71
2022/08/14 03:28:11;;;;;;;8.40;6.47;;;;;;;;;;1721696;81;21024;-71
2022/08/14 03:30:37;;;;;;;9.88;5.55;;;;;;;;;;1721858;81;21044;-71
2022/08/14 03:33:04;;;;;;;9.88;6.45;;;;;;;;;;1724753;81;21117;-71
2022/08/14 03:35:32;;;;;;;8.70;6.37;;;;;;;;;;1722779;81;21011;-71
2022/08/14 03:38:10;;;;;;;11.88;6.75;;;;;;;;;;1732613;81;20973;-72
2022/08/14 03:40:38;;;;;;;8.60;5.60;;;;;;;;;;1739926;81;21036;-72
2022/08/14 03:43:08;;;;;;;8.03;6.55;;;;;;;;;;1733296;81;21071;-71
2022/08/14 03:45:34;;;;;;;8.63;5.92;;;;;;;;;;1762266;80;21023;-71
2022/08/14 03:48:03;;;;;;;10.65;6.33;;;;;;;;;;1725557;81;21103;-72
2022/08/14 03:50:31;;;;;;;8.15;6.40;;;;;;;;;;1763619;80;21026;-72
2022/08/14 03:53:00;;;;;;;8.88;5.70;;;;;;;;;;1711538;82;21046;-72
2022/08/14 03:55:27;;;;;;;8.95;5.70;;;;;;;;;;1727712;81;21028;-72
2022/08/14 03:57:54;;;;;;;9.53;6.62;;;;;;;;;;1722524;81;21846;-71
2022/08/14 04:00:20;;;;;;;8.88;6.70;;;;;;;;;;1725407;81;21076;-71
2022/08/14 04:06:03;;;;;;;6.70;5.22;;;;;;;;;;1718523;82;21095;-71
2022/08/14 04:08:30;;;;;;;8.65;5.33;;;;;;;;;;1720358;82;21092;-72
2022/08/14 04:10:57;;;;;;;8.50;6.65;;;;;;;;;;1689691;82;21053;-72
2022/08/14 04:13:24;;;;;;;7.60;6.05;;;;;;;;;;1726736;82;21069;-72
2022/08/14 04:15:50;;;;;;;7.42;6.25;;;;;;;;;;1721355;82;20999;-71
2022/08/14 04:18:16;;;;;;;7.83;5.87;;;;;;;;;;1721476;81;21190;-71
2022/08/14 04:20:42;;;;;;;7.90;5.42;;;;;;;;;;1722328;82;21559;-72
2022/08/14 04:23:09;;;;;;;7.83;6.33;;;;;;;;;;1721445;82;21118;-72
2022/08/14 04:25:36;;;;;;;11.90;5.90;;;;;;;;;;1719961;82;22167;-72
2022/08/14 04:28:04;;;;;;;9.68;6.35;;;;;;;;;;1722441;82;21050;-71
2022/08/14 04:30:31;;;;;;;8.28;5.55;;;;;;;;;;1720038;82;21649;-72
2022/08/14 04:32:57;;;;;;;7.42;5.78;;;;;;;;;;1724387;82;21048;-72
2022/08/14 04:35:23;;;;;;;8.00;6.15;;;;;;;;;;1721180;82;21045;-71
2022/08/14 04:43:36;;;;;;;9.65;6.87;;;;;;;;;;1720234;82;21039;-71
2022/08/14 04:46:03;;;;;;;8.48;6.17;;;;;;;;;;1719256;82;21106;-71
2022/08/14 04:48:29;;;;;;;10.70;6.45;;;;;;;;;;1721739;82;21076;-71
2022/08/14 04:50:56;;;;;;;11.85;6.67;;;;;;;;;;1719754;82;21078;-71
2022/08/14 04:55:52;;;;;;;9.38;6.08;;;;;;;;;;1792179;79;23675;-67
2022/08/14 04:58:19;;;;;;;10.45;5.85;;;;;;;;;;1780841;80;21230;-67
2022/08/14 05:00:49;;;;;;;6.67;5.70;;;;;;;;;;1777407;80;21040;-68
2022/08/14 05:03:14;;;;;;;10.20;6.55;;;;;;;;;;1777291;80;21376;-67
2022/08/14 05:05:40;;;;;;;8.30;5.95;;;;;;;;;;1761997;80;21389;-67
2022/08/14 05:08:08;;;;;;;7.53;6.37;;;;;;;;;;1761038;80;21073;-68
2022/08/14 05:10:35;;;;;;;9.90;6.87;;;;;;;;;;1760113;80;21007;-68
2022/08/14 05:13:04;;;;;;;9.48;6.05;;;;;;;;;;1765279;80;21057;-68
2022/08/14 05:15:29;;;;;;;9.55;6.22;;;;;;;;;;1764008;80;21054;-67
2022/08/14 05:17:55;;;;;;;8.38;6.35;;;;;;;;;;1759265;80;21183;-66
2022/08/14 05:20:21;;;;;;;7.83;6.15;;;;;;;;;;1763334;80;21541;-66
2022/08/14 05:22:48;;;;;;;10.35;6.83;;;;;;;;;;1760607;80;20944;-65
2022/08/14 05:25:14;;;;;;;9.45;6.92;;;;;;;;;;1764940;80;21557;-66
2022/08/14 05:27:40;;;;;;;9.03;6.40;;;;;;;;;;1759805;80;21094;-66
2022/08/14 05:30:07;;;;;;;7.65;6.05;;;;;;;;;;1759763;80;21331;-66
2022/08/14 05:32:33;;;;;;;9.45;6.72;;;;;;;;;;1753212;80;21450;-66
2022/08/14 05:34:59;;;;;;;9.03;5.92;;;;;;;;;;1762820;80;21022;-66
2022/08/14 05:37:26;;;;;;;6.92;5.85;;;;;;;;;;1761225;80;21037;-65
2022/08/14 05:39:52;;;;;;;9.28;6.70;;;;;;;;;;1756863;80;21062;-67
2022/08/14 05:42:17;;;;;;;8.48;6.33;;;;;;;;;;1761605;80;21534;-68
2022/08/14 05:44:43;;;;;;;8.50;6.03;;;;;;;;;;1761219;80;21607;-67
2022/08/14 05:47:09;;;;;;;8.25;5.87;;;;;;;;;;1763736;80;21329;-66
2022/08/14 05:49:35;;;;;;;8.03;5.87;;;;;;;;;;1760012;80;21022;-67
2022/08/14 05:52:02;;;;;;;8.00;6.50;;;;;;;;;;1756569;80;21042;-64
2022/08/14 05:54:29;;;;;;;9.45;6.08;;;;;;;;;;1754756;80;22158;-65
2022/08/14 05:56:56;;;;;;;8.65;6.30;;;;;;;;;;1746144;81;21564;-66
2022/08/14 05:59:22;;;;;;;9.23;6.97;;;;;;;;;;1743514;81;20994;-66
2022/08/14 06:01:48;;;;;;;11.50;7.37;;;;;;;;;;1744274;81;21042;-66
2022/08/14 06:04:14;;;;;;;7.17;5.72;;;;;;;;;;1745612;81;21313;-66
2022/08/14 06:06:40;;;;;;;11.88;6.17;;;;;;;;;;1748247;81;21004;-66
2022/08/14 06:09:07;;;;;;;8.50;6.20;;;;;;;;;;1743803;81;21592;-66
2022/08/14 06:11:33;;;;;;;7.95;6.95;;;;;;;;;;1744026;81;21032;-67
2022/08/14 06:13:59;;;;;;;8.48;5.92;;;;;;;;;;1743698;81;21044;-66
2022/08/14 06:16:25;;;;;;;12.15;8.03;;;;;;;;;;1744490;81;21069;-65
2022/08/14 06:18:51;;;;;;;13.35;7.55;;;;;;;;;;1746898;81;21067;-66
2022/08/14 06:21:17;;;;;;;9.60;6.20;;;;;;;;;;1744084;81;21066;-66
2022/08/14 06:23:43;;;;;;;10.32;6.78;;;;;;;;;;1747128;81;21472;-66
2022/08/14 06:26:09;;;;;;;8.30;6.25;;;;;;;;;;1748906;81;21082;-66
2022/08/14 06:28:36;;;;;;;7.65;6.78;;;;;;;;;;1747954;81;20948;-66
2022/08/14 06:31:03;;;;;;;9.85;6.55;;;;;;;;;;1743876;81;21519;-66
2022/08/14 06:33:29;;;;;;;6.55;5.47;;;;;;;;;;1749175;81;21096;-66
2022/08/14 06:35:57;;;;;;;9.73;6.83;;;;;;;;;;1680558;83;21065;-66
2022/08/14 06:38:23;;;;;;;8.85;7.37;;;;;;;;;;1746355;81;20996;-66
2022/08/14 06:40:49;;;;;;;8.18;7.33;;;;;;;;;;1742184;81;20992;-66
2022/08/14 06:43:16;;;;;;;8.75;5.80;;;;;;;;;;1748641;81;20997;-66
2022/08/14 06:45:43;;;;;;;8.93;6.25;;;;;;;;;;1723212;81;21055;-66
2022/08/14 06:48:17;;;;;;;7.75;6.45;;;;;;;;;;1747033;81;21059;-66
2022/08/14 06:50:43;;;;;;;7.97;7.15;;;;;;;;;;1743528;81;21090;-64
2022/08/14 06:53:10;;;;;;;10.08;7.50;;;;;;;;;;1743453;80;21047;-65
2022/08/14 06:55:36;;;;;;;9.23;7.55;;;;;;;;;;1741367;81;21031;-65
2022/08/14 06:58:02;;;;;;;9.05;7.60;;;;;;;;;;1743267;81;21516;-65
2022/08/14 07:00:28;;;;;;;8.83;6.40;;;;;;;;;;1746581;81;21006;-65
2022/08/14 07:05:45;;;;;;;8.55;6.78;;;;;;;;;;1743962;81;21051;-64
2022/08/14 07:08:16;;;;;;;9.60;7.80;;;;;;;;;;1747827;80;21006;-64
2022/08/14 07:10:43;;;;;;;12.18;10.95;;;;;;;;;;1744249;81;21400;-65
2022/08/14 07:13:10;;;;;;;9.33;7.60;;;;;;;;;;1746094;81;21061;-66
2022/08/14 07:15:36;;;;;;;8.00;7.20;;;;;;;;;;1746021;81;21065;-68
2022/08/14 07:18:02;;;;;;;10.45;7.22;;;;;;;;;;1746837;81;21527;-69
2022/08/14 07:20:28;;;;;;;8.70;7.60;;;;;;;;;;1746090;81;21066;-69
2022/08/14 07:22:57;;;;;;;9.18;6.75;;;;;;;;;;1749116;81;20982;-69
2022/08/14 07:25:23;;;;;;;9.10;7.65;;;;;;;;;;1744825;81;21047;-69
2022/08/14 07:27:49;;;;;;;8.35;6.92;;;;;;;;;;1746444;81;21034;-69
2022/08/14 07:30:16;;;;;;;8.75;6.92;;;;;;;;;;1745772;81;21031;-67
2022/08/14 07:32:42;;;;;;;9.70;6.65;;;;;;;;;;1746652;81;21661;-69
2022/08/14 07:35:08;;;;;;;6.83;6.08;;;;;;;;;;1741556;81;20976;-70
2022/08/14 07:37:34;;;;;;;8.75;7.47;;;;;;;;;;1749165;81;21430;-69
2022/08/14 07:40:01;;;;;;;11.22;7.87;;;;;;;;;;1747357;81;21029;-69
2022/08/14 07:42:27;;;;;;;9.50;6.70;;;;;;;;;;1747995;81;22293;-69
2022/08/14 07:44:53;;;;;;;9.73;6.62;;;;;;;;;;1749373;81;21004;-69
2022/08/14 07:47:19;;;;;;;8.70;6.67;;;;;;;;;;1746623;81;20973;-67
2022/08/14 07:49:47;;;;;;;8.28;7.40;;;;;;;;;;1749479;81;21045;-67
2022/08/14 07:52:14;;;;;;;8.38;7.47;;;;;;;;;;1745256;81;21586;-69
2022/08/14 07:54:40;;;;;;;7.58;6.40;;;;;;;;;;1746741;80;20991;-69
2022/08/14 07:57:06;;;;;;;9.03;6.83;;;;;;;;;;1757272;80;21342;-68
2022/08/14 07:59:32;;;;;;;9.78;7.58;;;;;;;;;;1762328;80;21046;-68
2022/08/14 08:01:58;;;;;;;9.78;7.05;;;;;;;;;;1760348;80;21009;-68
2022/08/14 08:04:25;;;;;;;7.78;6.87;;;;;;;;;;1762667;80;21668;-68
2022/08/14 08:06:51;;;;;;;8.45;7.55;;;;;;;;;;1758852;80;21062;-68
2022/08/14 08:09:17;;;;;;;10.75;7.55;;;;;;;;;;1756146;80;21001;-68
2022/08/14 08:11:43;;;;;;;12.68;6.72;;;;;;;;;;1754797;80;21049;-69
2022/08/14 08:14:16;;;;;;;8.05;6.58;;;;;;;;;;1761895;80;21050;-69
2022/08/14 08:16:42;;;;;;;9.65;7.40;;;;;;;;;;1757349;80;22012;-69
2022/08/14 08:19:09;;;;;;;10.45;7.42;;;;;;;;;;1758738;80;20982;-68
2022/08/14 08:21:38;;;;;;;9.13;7.00;;;;;;;;;;1758084;80;21063;-66
2022/08/14 08:24:05;;;;;;;9.73;7.35;;;;;;;;;;1760679;80;21040;-68
2022/08/14 08:26:31;;;;;;;8.65;7.33;;;;;;;;;;1764612;80;21078;-69
2022/08/14 08:28:57;;;;;;;10.72;7.33;;;;;;;;;;1757074;80;21036;-68
2022/08/14 08:31:24;;;;;;;9.30;7.65;;;;;;;;;;1759513;80;21012;-69
2022/08/14 08:33:51;;;;;;;9.55;6.70;;;;;;;;;;1760412;80;21282;-68
2022/08/14 08:36:17;;;;;;;8.43;6.60;;;;;;;;;;1766704;80;20991;-68
2022/08/14 08:38:44;;;;;;;8.78;6.70;;;;;;;;;;1761001;80;20993;-68
2022/08/14 08:41:11;;;;;;;8.75;7.12;;;;;;;;;;1761505;80;21026;-67
2022/08/14 08:43:38;;;;;;;9.70;6.78;;;;;;;;;;1760954;80;20955;-68
2022/08/14 08:46:05;;;;;;;10.78;6.97;;;;;;;;;;1762883;80;21475;-68
2022/08/14 08:48:45;;;;;;;8.38;6.67;;;;;;;;;;1758000;80;21487;-67
2022/08/14 08:51:25;;;;;;;9.13;7.17;;;;;;;;;;1758708;80;21019;-70
2022/08/14 08:53:58;;;;;;;8.13;6.25;;;;;;;;;;1759159;80;20991;-68
2022/08/14 08:56:37;;;;;;;9.63;7.30;;;;;;;;;;1747168;80;21669;-69
2022/08/14 08:59:06;;;;;;;9.48;7.47;;;;;;;;;;1740818;81;21097;-67
2022/08/14 09:01:33;;;;;;;8.18;6.42;;;;;;;;;;1742463;81;21008;-68
2022/08/14 09:04:02;;;;;;;8.70;6.37;;;;;;;;;;1745889;81;21078;-68
2022/08/14 09:06:30;;;;;;;6.97;6.28;;;;;;;;;;1745059;81;21004;-68
2022/08/14 09:08:56;;;;;;;8.50;7.33;;;;;;;;;;1747920;81;20976;-68
2022/08/14 09:11:23;;;;;;;6.08;5.40;;;;;;;;;;1742141;81;21033;-68
2022/08/14 09:13:49;;;;;;;6.80;6.10;;;;;;;;;;1746128;80;21000;-68
2022/08/14 09:16:18;;;;;;;7.10;5.87;;;;;;;;;;1742550;81;20986;-67
2022/08/14 09:18:44;;;;;;;7.33;6.08;;;;;;;;;;1664769;84;21073;-66
2022/08/14 09:21:10;;;;;;;11.25;8.33;;;;;;;;;;1740901;81;21123;-66
2022/08/14 09:23:36;;;;;;;12.65;8.98;;;;;;;;;;1723951;81;21003;-68
2022/08/14 09:26:02;;;;;;;7.45;6.72;;;;;;;;;;1745699;81;21039;-66
2022/08/14 09:28:28;;;;;;;7.97;6.42;;;;;;;;;;1745410;81;21087;-67
2022/08/14 09:30:54;;;;;;;7.25;6.08;;;;;;;;;;1743423;81;20988;-66
2022/08/14 09:33:37;;;;;;;8.03;6.85;;;;;;;;;;1747740;81;21586;-66
2022/08/14 09:36:14;;;;;;;7.85;6.87;;;;;;;;;;1751702;81;21023;-66
2022/08/14 09:38:59;;;;;;;8.75;6.60;;;;;;;;;;1745128;81;22183;-67
2022/08/14 09:41:30;;;;;;;7.92;6.92;;;;;;;;;;1745160;81;21059;-68
2022/08/14 09:44:07;;;;;;;8.33;7.28;;;;;;;;;;1744356;81;21326;-67
2022/08/14 09:46:34;;;;;;;7.72;6.60;;;;;;;;;;1747068;81;21039;-68
2022/08/14 09:49:00;;;;;;;8.88;7.45;;;;;;;;;;1742046;82;20996;-68
2022/08/14 09:51:26;;;;;;;8.55;6.92;;;;;;;;;;1752187;81;21035;-68
2022/08/14 09:54:05;;;;;;;9.28;6.67;;;;;;;;;;1746274;81;21031;-69
2022/08/14 09:56:32;;;;;;;8.33;6.60;;;;;;;;;;1747857;81;21057;-69
2022/08/14 09:59:00;;;;;;;8.55;6.70;;;;;;;;;;1750066;80;21019;-69
2022/08/14 10:01:28;;;;;;;8.03;6.47;;;;;;;;;;1751245;80;21079;-67
2022/08/14 10:03:55;;;;;;;6.97;6.28;;;;;;;;;;1750930;81;21121;-68
2022/08/14 10:06:24;;;;;;;11.05;6.83;;;;;;;;;;1753376;81;21029;-69
2022/08/14 10:08:50;;;;;;;8.15;6.28;;;;;;;;;;1755158;81;21438;-69
2022/08/14 10:11:23;;;;;;;9.95;7.33;;;;;;;;;;1752166;81;21089;-70
2022/08/14 10:13:53;;;;;;;8.13;5.95;;;;;;;;;;1752007;81;21063;-67
2022/08/14 10:16:24;;;;;;;7.80;6.28;;;;;;;;;;1753539;81;20964;-68
2022/08/14 10:18:50;;;;;;;9.38;6.12;;;;;;;;;;1751122;81;21506;-69
2022/08/14 10:21:17;;;;;;;9.15;6.55;;;;;;;;;;1756768;80;21073;-69
2022/08/14 10:23:48;;;;;;;8.88;6.03;;;;;;;;;;1754481;81;21031;-69
2022/08/14 10:26:15;;;;;;;8.53;6.75;;;;;;;;;;1756361;81;21015;-66
2022/08/14 10:28:43;;;;;;;14.20;10.10;;;;;;;;;;1750442;81;21051;-66
2022/08/14 10:31:17;;;;;;;8.75;6.70;;;;;;;;;;1752339;81;21077;-67
2022/08/14 10:33:45;;;;;;;7.45;6.58;;;;;;;;;;1679810;83;21635;-67
2022/08/14 10:36:11;;;;;;;8.43;6.40;;;;;;;;;;1753973;81;20990;-64
2022/08/14 10:38:37;;;;;;;7.25;6.30;;;;;;;;;;1757714;80;21003;-65
2022/08/14 10:41:12;;;;;;;7.90;6.20;;;;;;;;;;1752888;80;21511;-65
2022/08/14 10:43:39;;;;;;;6.47;5.78;;;;;;;;;;1753899;80;20979;-66
2022/08/14 10:46:14;;;;;;;7.00;6.20;;;;;;;;;;1751136;80;22220;-66
2022/08/14 10:48:40;;;;;;;8.53;6.17;;;;;;;;;;1748040;81;21043;-66
2022/08/14 10:51:06;;;;;;;8.73;5.70;;;;;;;;;;1749336;81;21069;-65
2022/08/14 10:53:33;;;;;;;8.18;5.45;;;;;;;;;;1753438;80;20999;-67
2022/08/14 10:56:02;;;;;;;9.75;6.40;;;;;;;;;;1758347;80;21025;-66
2022/08/14 10:58:29;;;;;;;7.28;6.15;;;;;;;;;;1759772;80;21646;-68
2022/08/14 11:00:55;;;;;;;10.75;6.47;;;;;;;;;;1754796;80;21470;-67
2022/08/14 11:03:22;;;;;;;7.25;6.00;;;;;;;;;;1751721;80;21047;-66
2022/08/14 11:05:49;;;;;;;6.50;5.55;;;;;;;;;;1758683;80;21725;-66
2022/08/14 11:08:18;;;;;;;8.48;5.83;;;;;;;;;;1756468;81;21209;-66
2022/08/14 11:10:47;;;;;;;9.70;6.12;;;;;;;;;;1754420;81;21003;-66
2022/08/14 11:13:18;;;;;;;7.47;5.67;;;;;;;;;;1775222;81;21010;-65
2022/08/14 11:15:50;;;;;;;7.83;6.80;;;;;;;;;;1753755;81;20995;-66
2022/08/14 11:18:17;;;;;;;7.20;6.22;;;;;;;;;;1752374;82;21054;-66
2022/08/14 11:20:53;;;;;;;9.20;5.92;;;;;;;;;;1754401;81;21038;-65
2022/08/14 11:23:19;;;;;;;8.48;5.55;;;;;;;;;;1754219;81;21082;-65
2022/08/14 11:25:45;;;;;;;7.10;5.60;;;;;;;;;;1753433;81;21063;-65
2022/08/14 11:28:13;;;;;;;7.40;6.12;;;;;;;;;;1752810;81;21224;-65
2022/08/14 11:30:39;;;;;;;8.75;6.50;;;;;;;;;;1754048;81;21249;-64
2022/08/14 11:33:06;;;;;;;6.95;5.33;;;;;;;;;;1754585;81;21019;-66
2022/08/14 11:35:32;;;;;;;8.80;6.22;;;;;;;;;;1755035;81;21525;-65
2022/08/14 11:38:00;;;;;;;6.05;5.45;;;;;;;;;;1756981;81;21039;-65
2022/08/14 11:40:27;;;;;;;9.73;5.97;;;;;;;;;;1754122;81;21079;-65
2022/08/14 11:42:56;;;;;;;8.95;6.37;;;;;;;;;;1751456;81;21715;-66
2022/08/14 11:45:23;;;;;;;12.13;5.90;;;;;;;;;;1752927;81;21192;-65
2022/08/14 11:47:51;;;;;;;11.03;6.03;;;;;;;;;;1762627;81;21011;-65
2022/08/14 11:50:18;;;;;;;8.43;6.47;;;;;;;;;;1756512;81;20990;-65
2022/08/14 11:52:44;;;;;;;7.20;5.87;;;;;;;;;;1755881;81;20972;-64
2022/08/14 11:55:12;;;;;;;7.08;5.25;;;;;;;;;;1754941;81;21005;-65
2022/08/14 11:57:40;;;;;;;9.73;6.33;;;;;;;;;;1740700;82;21008;-66
2022/08/14 12:00:08;;;;;;;7.70;6.37;;;;;;;;;;1743815;81;21026;-66
2022/08/14 12:02:34;;;;;;;6.90;5.20;;;;;;;;;;1749889;81;21598;-66
2022/08/14 12:05:00;;;;;;;11.48;5.85;;;;;;;;;;1747255;81;21003;-65
2022/08/14 12:07:27;;;;;;;7.10;6.03;;;;;;;;;;1742314;81;21085;-65
2022/08/14 12:09:54;;;;;;;9.65;5.72;;;;;;;;;;1744575;81;21086;-66
2022/08/14 12:12:22;;;;;;;10.35;6.25;;;;;;;;;;1744421;81;20993;-64
2022/08/14 12:14:52;;;;;;;8.90;6.40;;;;;;;;;;1754051;81;21021;-64
2022/08/14 12:17:17;;;;;;;8.53;5.80;;;;;;;;;;1748031;81;21090;-66
2022/08/14 12:19:46;;;;;;;11.73;6.47;;;;;;;;;;1749366;81;21035;-65
2022/08/14 12:22:11;;;;;;;8.05;4.95;;;;;;;;;;1742989;81;21042;-65
2022/08/14 12:24:38;;;;;;;7.47;5.25;;;;;;;;;;1744464;81;21055;-65
2022/08/14 12:27:04;;;;;;;6.50;5.12;;;;;;;;;;1747194;81;21062;-65
2022/08/14 12:29:30;;;;;;;8.90;6.00;;;;;;;;;;1726362;81;21071;-65
2022/08/14 12:31:59;;;;;;;6.37;4.90;;;;;;;;;;1745643;81;21047;-66
2022/08/14 12:34:27;;;;;;;7.97;5.17;;;;;;;;;;1743467;81;21081;-66
2022/08/14 12:37:02;;;;;;;7.97;5.45;;;;;;;;;;1746060;81;21480;-65
2022/08/14 12:39:29;;;;;;;7.53;5.47;;;;;;;;;;1747444;81;21039;-65
2022/08/14 12:42:05;;;;;;;8.73;5.78;;;;;;;;;;1743726;81;21026;-65
2022/08/14 12:44:30;;;;;;;9.70;5.20;;;;;;;;;;1737729;82;21050;-65
2022/08/14 12:47:08;;;;;;;7.15;5.40;;;;;;;;;;1750929;81;21032;-65
2022/08/14 12:49:34;;;;;;;12.33;5.78;;;;;;;;;;1763936;81;21045;-65
2022/08/14 12:52:01;;;;;;;8.58;6.47;;;;;;;;;;1758473;81;21059;-65
2022/08/14 12:54:31;;;;;;;9.23;6.20;;;;;;;;;;1749251;81;21096;-66
2022/08/14 12:57:07;;;;;;;6.78;5.37;;;;;;;;;;1755762;81;21054;-66
2022/08/14 12:59:34;;;;;;;8.20;6.12;;;;;;;;;;1746469;81;21015;-66
2022/08/14 13:02:00;;;;;;;9.83;5.65;;;;;;;;;;1745174;81;21064;-65
2022/08/14 13:04:30;;;;;;;8.25;5.87;;;;;;;;;;1707189;82;21102;-66
2022/08/14 13:06:58;;;;;;;6.53;5.53;;;;;;;;;;1671279;84;21363;-66
2022/08/14 13:09:27;;;;;;;10.93;6.22;;;;;;;;;;1742159;81;21453;-66
2022/08/14 13:11:53;;;;;;;7.67;5.80;;;;;;;;;;1745832;81;21090;-65
2022/08/14 13:14:26;;;;;;;7.37;6.08;;;;;;;;;;1745651;81;21028;-65
2022/08/14 13:16:53;;;;;;;8.60;5.67;;;;;;;;;;1747641;81;21027;-65
2022/08/14 13:19:19;;;;;;;10.65;5.80;;;;;;;;;;1744223;81;20992;-65
2022/08/14 13:21:47;;;;;;;10.25;6.50;;;;;;;;;;1742998;81;20992;-66
2022/08/14 13:24:14;;;;;;;7.92;5.58;;;;;;;;;;1747185;81;21028;-65
2022/08/14 13:26:42;;;;;;;12.33;6.70;;;;;;;;;;1742500;81;21558;-65
2022/08/14 13:29:09;;;;;;;7.95;6.00;;;;;;;;;;1743434;81;22134;-65
2022/08/14 13:31:37;;;;;;;11.08;6.35;;;;;;;;;;1743316;80;21028;-65
2022/08/14 13:34:03;;;;;;;7.60;5.40;;;;;;;;;;1679100;83;21037;-65
2022/08/14 13:36:29;;;;;;;9.33;5.42;;;;;;;;;;1742207;81;21070;-65
2022/08/14 13:38:55;;;;;;;8.88;6.28;;;;;;;;;;1742688;81;21061;-66
2022/08/14 13:41:23;;;;;;;8.93;5.87;;;;;;;;;;1743370;80;21037;-66
2022/08/14 13:43:49;;;;;;;9.95;7.15;;;;;;;;;;1745976;81;21024;-65
2022/08/14 13:46:19;;;;;;;7.03;5.67;;;;;;;;;;1746159;81;21014;-65
2022/08/14 13:48:44;;;;;;;8.65;5.70;;;;;;;;;;1744976;81;21343;-66
2022/08/14 13:51:10;;;;;;;9.78;5.58;;;;;;;;;;1743094;81;21011;-65
2022/08/14 13:53:42;;;;;;;10.05;6.47;;;;;;;;;;1748446;81;21589;-65
2022/08/14 13:56:06;;;;;;;10.43;6.62;;;;;;;;;;1741665;81;21058;-65
2022/08/14 13:58:33;;;;;;;10.80;5.90;;;;;;;;;;1762009;80;21073;-65
2022/08/14 14:00:59;;;;;;;8.75;6.28;;;;;;;;;;1759554;80;21350;-65
2022/08/14 14:03:25;;;;;;;8.20;6.17;;;;;;;;;;1757673;80;21007;-65
2022/08/14 14:05:52;;;;;;;7.85;6.00;;;;;;;;;;1690158;83;21520;-66
2022/08/14 14:08:19;;;;;;;9.30;5.95;;;;;;;;;;1725270;82;21401;-63
2022/08/14 14:10:45;;;;;;;8.40;5.75;;;;;;;;;;1726764;82;21016;-65
2022/08/14 14:13:13;;;;;;;8.68;6.50;;;;;;;;;;1724394;82;21043;-64
2022/08/14 14:15:39;;;;;;;7.87;5.10;;;;;;;;;;1723868;82;21116;-65
2022/08/14 14:18:05;;;;;;;8.45;6.12;;;;;;;;;;1727223;82;21530;-65
2022/08/14 14:20:32;;;;;;;6.60;5.50;;;;;;;;;;1726624;82;21093;-63
2022/08/14 14:22:58;;;;;;;8.98;5.67;;;;;;;;;;1724085;82;22244;-64
2022/08/14 14:25:24;;;;;;;22.20;16.85;;;;;;;;;;1726121;82;21056;-65
2022/08/14 14:27:50;;;;;;;22.25;19.00;;;;;;;;;;1685071;84;21080;-65
2022/08/14 14:30:17;;;;;;;18.95;14.23;;;;;;;;;;1700071;83;21662;-65
2022/08/14 14:32:44;;;;;;;8.40;6.30;;;;;;;;;;1696221;83;21088;-64
2022/08/14 14:35:13;;;;;;;8.28;5.70;;;;;;;;;;1701517;83;21052;-66
2022/08/14 14:37:40;;;;;;;6.95;5.83;;;;;;;;;;1724934;83;21107;-65
2022/08/14 14:40:07;;;;;;;6.62;5.50;;;;;;;;;;1723430;82;21036;-65
2022/08/14 14:42:33;;;;;;;9.33;5.80;;;;;;;;;;1721060;82;21082;-64
2022/08/14 14:45:07;;;;;;;7.83;6.35;;;;;;;;;;1699099;82;21617;-65
2022/08/14 14:47:33;;;;;;;8.60;6.03;;;;;;;;;;1701457;83;21051;-65
2022/08/14 14:50:02;;;;;;;7.47;6.10;;;;;;;;;;1710662;82;21010;-65
2022/08/14 14:52:28;;;;;;;7.92;5.62;;;;;;;;;;1688204;84;21078;-65
2022/08/14 14:54:55;;;;;;;8.78;6.62;;;;;;;;;;1696572;83;21061;-65
2022/08/14 14:57:21;;;;;;;8.00;5.53;;;;;;;;;;1721825;82;21033;-67
2022/08/14 14:59:47;;;;;;;6.22;5.62;;;;;;;;;;1716666;82;21048;-66
2022/08/14 15:02:15;;;;;;;9.08;6.22;;;;;;;;;;1689267;83;21698;-65
2022/08/14 15:04:41;;;;;;;9.00;5.40;;;;;;;;;;1688621;85;21064;-66
2022/08/14 15:07:07;;;;;;;6.62;5.85;;;;;;;;;;1689738;83;21021;-66